ADDS METAR Data INFO
IDs: Format: Raw Decoded Include TAF

Data at: 2053 UTC 24 Jun 2018

KT35 242035Z AUTO 18018G24KT 10SM CLR 36/21 A2985 RMK AO2 T03570206
KT35 242015Z AUTO 19014G21KT 10SM SCT050 SCT055 36/21 A2986 RMK AO2 T03570213
KT35 241955Z AUTO 17012G21KT 10SM SCT049 35/21 A2986 RMK AO2 T03520206
KT35 241935Z AUTO 18011G19KT 10SM SCT049 35/21 A2987 RMK AO2 T03480211
KT35 241915Z AUTO 19012G21KT 10SM BKN049 BKN055 35/21 A2987 RMK AO2 T03490211
KT35 241855Z AUTO 17012G15KT 10SM BKN047 34/22 A2988 RMK AO2 T03380219
KT35 241835Z AUTO 17014G20KT 10SM SCT047 35/22 A2988 RMK AO2 T03470218
KT35 241815Z AUTO 17013G20KT 10SM BKN047 34/22 A2989 RMK AO2 T03380215
KT35 241755Z AUTO 17015G19KT 10SM BKN045 34/22 A2989 RMK AO2 T03360217 10339 20257
KT35 241735Z AUTO 17016G21KT 10SM SCT043 33/22 A2989 RMK AO2 T03330219
KT35 241715Z AUTO 20013G18KT 10SM SCT039 33/22 A2988 RMK AO2 T03330219
KT35 241655Z AUTO 17014G20KT 10SM SCT039 33/22 A2988 RMK AO2 T03270216
KT35 241635Z AUTO 17015G21KT 10SM SCT041 32/22 A2989 RMK AO2 T03240217
KT35 241615Z AUTO 18017G23KT 160V220 10SM SCT038 32/22 A2989 RMK AO2 T03180220
KT35 241555Z AUTO 18015G21KT 10SM BKN037 BKN043 31/22 A2989 RMK AO2 T03140220
KT35 241535Z AUTO 19014G23KT 10SM SCT029 SCT035 31/23 A2988 RMK AO2 T03070225
KT35 241515Z AUTO 20017G23KT 10SM SCT029 30/23 A2988 RMK AO2 T03020225
KT35 241455Z AUTO 19018G21KT 10SM SCT025 30/22 A2988 RMK AO2 T02990224
KT35 241435Z AUTO 20015G23KT 10SM BKN025 BKN034 29/23 A2988 RMK AO2 T02920227
KT35 241415Z AUTO 20013G21KT 10SM BKN025 OVC034 29/23 A2987 RMK AO2 T02850227
KT35 241355Z AUTO 18013G20KT 10SM BKN021 BKN027 28/23 A2986 RMK AO2 T02820229
KT35 241335Z AUTO 19012G16KT 10SM BKN021 BKN027 28/23 A2986 RMK AO2 T02800229
KT35 241315Z AUTO 20015G20KT 10SM OVC019 27/23 A2985 RMK AO2 T02740230
KT35 241255Z AUTO 19014G20KT 10SM OVC019 27/23 A2985 RMK AO2 T02680230
KT35 241235Z AUTO 19012G23KT 10SM BKN019 27/23 A2984 RMK AO2 T02650229
KT35 241215Z AUTO 20014G25KT 10SM SCT013 26/23 A2981 RMK AO2 T02600232
KT35 241155Z AUTO 18017G26KT 10SM BKN013 26/23 A2978 RMK AO2 T02570233 10275 20257
KT35 241135Z AUTO 18016G26KT 10SM BKN013 26/24 A2980 RMK AO2 T02590235
KT35 241115Z AUTO 18015G24KT 10SM BKN015 26/24 A2981 RMK AO2 T02580236
KT35 241055Z AUTO 18011G20KT 10SM SCT015 26/24 A2983 RMK AO2 T02580236
KT35 241035Z AUTO 17012G18KT 10SM CLR 26/24 A2983 RMK AO2 T02570235
KT35 241015Z AUTO 18013G20KT 10SM CLR 26/24 A2983 RMK AO2 T02590235
KT35 240955Z AUTO 17012G16KT 10SM CLR 26/24 A2984 RMK AO2 T02590235
KT35 240935Z AUTO 18011G16KT 10SM CLR 26/24 A2984 RMK AO2 T02600235
KT35 240915Z AUTO 18011G14KT 10SM CLR 26/23 A2984 RMK AO2 T02600233
KT35 240855Z AUTO 17011KT 10SM CLR 26/23 A2984 RMK AO2 T02620232
KT35 240835Z AUTO 18008KT 10SM CLR 27/23 A2986 RMK AO2 T02650232
KT35 240815Z AUTO 18006KT 10SM CLR 27/23 A2988 RMK AO2 T02650232
KT35 240755Z AUTO 17008KT 10SM SCT027 SCT046 27/23 A2988 RMK AO2 T02660233
KT35 240735Z AUTO 18008KT 10SM SCT029 SCT034 BKN048 27/23 A2989 RMK AO2 T02700233
KT35 240715Z AUTO 19008KT 10SM SCT023 SCT032 BKN046 27/23 A2990 RMK AO2 T02710232
KT35 240655Z AUTO 20007KT 10SM BKN021 BKN026 OVC039 28/24 A2991 RMK AO2 T02750235
KT35 240635Z AUTO 21004KT 10SM BKN021 OVC026 28/24 A2991 RMK AO2 LTG DSNT N AND NW T02750235
KT35 240615Z AUTO 20008KT 10SM OVC021 27/24 A2990 RMK AO2 LTG DSNT NW T02740235
KT35 240555Z AUTO 18010G16KT 10SM BKN023 OVC030 27/24 A2987 RMK AO2 T02730235 10336 20273 403570240
KT35 240535Z AUTO 18010KT 10SM BKN023 OVC028 28/24 A2986 RMK AO2 LTG DSNT NW T02750235
KT35 240515Z AUTO 18014G19KT 10SM BKN021 OVC028 28/23 A2985 RMK AO2 LTG DSNT NW T02750234
KT35 240455Z AUTO 17010KT 10SM OVC021 28/24 A2984 RMK AO2 T02750235
KT35 240435Z AUTO 18012G19KT 10SM SCT023 28/23 A2984 RMK AO2 T02750232
KT35 240415Z AUTO 16010G16KT 10SM CLR 28/23 A2982 RMK AO2 T02770228
KT35 240355Z AUTO 17008G15KT 10SM CLR 28/23 A2982 RMK AO2 T02810226
KT35 240335Z AUTO 17011G16KT 10SM CLR 28/23 A2980 RMK AO2 T02840225
KT35 240315Z AUTO 16010G17KT 10SM CLR 29/22 A2978 RMK AO2 T02870223
KT35 240255Z AUTO 17010G19KT 10SM CLR 29/22 A2978 RMK AO2 T02910220
KT35 240235Z AUTO 17010G14KT 10SM CLR 30/22 A2977 RMK AO2 T02950218
KT35 240215Z AUTO 17012G15KT 10SM CLR 30/22 A2976 RMK AO2 T02970218
KT35 240155Z AUTO 16010G15KT 10SM CLR 30/22 A2976 RMK AO2 T03020220
KT35 240135Z AUTO 16012G20KT 10SM CLR 31/22 A2976 RMK AO2 T03070220
KT35 240115Z AUTO 16008G18KT 10SM CLR 31/22 A2975 RMK AO2 T03130220
KT35 240055Z AUTO 16013G17KT 10SM CLR 32/22 A2975 RMK AO2 T03200220
KT35 240035Z AUTO 16013G21KT 10SM CLR 33/22 A2976 RMK AO2 T03250217
KT35 240015Z AUTO 16015G19KT 10SM CLR 33/22 A2975 RMK AO2 T03310219
KT35 232355Z AUTO 17013G21KT 10SM CLR 34/22 A2975 RMK AO2 T03360217 10357 20324
KT35 232335Z AUTO 16014G20KT 10SM CLR 34/21 A2974 RMK AO2 T03400213
KT35 232315Z AUTO 17013G20KT 10SM CLR 35/21 A2974 RMK AO2 T03450211
KT35 232255Z AUTO 17011KT 10SM CLR 35/21 A2975 RMK AO2 T03500213
KT35 232235Z AUTO 16013G19KT 10SM CLR 35/21 A2976 RMK AO2 T03490208
KT35 232215Z AUTO 17015G20KT 10SM CLR 35/21 A2976 RMK AO2 T03530210
KT35 232155Z AUTO 18014G20KT 10SM CLR 36/21 A2977 RMK AO2 T03550208
KT35 232135Z AUTO 18015G22KT 10SM SCT055 36/21 A2978 RMK AO2 T03570213
KT35 232115Z AUTO 16012G16KT 10SM SCT055 35/21 A2978 RMK AO2 T03530211
KT35 232055Z AUTO 17011G21KT 10SM CLR 35/21 A2979 RMK AO2 T03500209
KT35 232035Z AUTO 18014G19KT 10SM CLR 35/21 A2980 RMK AO2 T03510213
KT35 232015Z AUTO 18013G23KT 10SM SCT049 35/21 A2980 RMK AO2 T03500211
KT35 231955Z AUTO 14012G17KT 10SM SCT049 35/21 A2981 RMK AO2 T03450212
KT35 231935Z AUTO 17010G18KT 10SM CLR 35/21 A2981 RMK AO2 T03450211
KT35 231915Z AUTO 16011G19KT 10SM CLR 34/21 A2982 RMK AO2 T03430213
KT35 231855Z AUTO 14009G16KT 10SM CLR 34/21 A2983 RMK AO2 T03380214
KT35 231835Z AUTO 17011G15KT 10SM SCT042 33/21 A2984 RMK AO2 T03340213
KT35 231815Z AUTO 16008KT 130V200 10SM SCT040 33/22 A2985 RMK AO2 T03300215
KT35 231755Z AUTO 16010G14KT 10SM SCT038 32/22 A2986 RMK AO2 T03230217 10326 20242
KT35 231735Z AUTO 18008G16KT 10SM SCT036 32/22 A2987 RMK AO2 T03220217
KT35 231715Z AUTO 17007KT 140V200 10SM SCT036 32/22 A2987 RMK AO2 T03190219
KT35 231655Z AUTO 15010G17KT 10SM BKN034 31/22 A2988 RMK AO2 T03120219
KT35 231635Z AUTO 14007KT 10SM BKN032 31/22 A2988 RMK AO2 T03070219
KT35 231615Z AUTO 17010G15KT 10SM BKN030 BKN038 30/22 A2988 RMK AO2 T03040220
KT35 231555Z AUTO 19006KT 10SM OVC028 30/22 A2988 RMK AO2 T02970220
KT35 231535Z AUTO 17009G17KT 130V200 10SM BKN028 30/22 A2987 RMK AO2 T03000219
KT35 231515Z AUTO 18014G17KT 10SM BKN024 29/22 A2986 RMK AO2 T02890219
KT35 231455Z AUTO 17012G17KT 10SM BKN022 BKN027 29/22 A2987 RMK AO2 T02860221
KT35 231435Z AUTO 20011G15KT 10SM BKN024 27/22 A2987 RMK AO2 T02740224
KT35 231415Z AUTO 19014G18KT 10SM SCT019 BKN025 27/22 A2987 RMK AO2 T02720222
KT35 231355Z AUTO 19012G20KT 10SM BKN017 BKN022 27/23 A2986 RMK AO2 T02650226
KT35 231335Z AUTO 17011G19KT 10SM BKN015 OVC020 26/23 A2986 RMK AO2 T02600227
KT35 231315Z AUTO 17007KT 10SM OVC013 25/23 A2986 RMK AO2 T02530230
KT35 231255Z AUTO 15005KT 10SM OVC013 25/23 A2986 RMK AO2 T02500230
KT35 231235Z AUTO 14004KT 10SM BKN011 25/23 A2986 RMK AO2 T02460231
KT35 231215Z AUTO 14005KT 10SM SCT009 24/23 A2985 RMK AO2 T02430230
KT35 231155Z AUTO 13004KT 10SM CLR 24/23 A2985 RMK AO2 T02420230 10273 20240
KT35 231135Z AUTO 15004KT 10SM CLR 24/23 A2983 RMK AO2 T02410230
KT35 231115Z AUTO 15005KT 10SM CLR 24/23 A2983 RMK AO2 T02420231
KT35 231055Z AUTO 16004KT 10SM CLR 24/23 A2983 RMK AO2 T02430230
KT35 231035Z AUTO 16006KT 10SM CLR 25/23 A2982 RMK AO2 T02450231
KT35 231015Z AUTO 16005KT 10SM CLR 25/23 A2982 RMK AO2 T02450231
KT35 230955Z AUTO 17005KT 10SM CLR 25/23 A2982 RMK AO2 T02480232
KT35 230935Z AUTO 17009KT 10SM SCT011 25/23 A2981 RMK AO2 T02500233
KT35 230915Z AUTO 18008KT 10SM CLR 25/23 A2982 RMK AO2 T02500232
KT35 230855Z AUTO 18009KT 10SM CLR 25/24 A2981 RMK AO2 T02530235